createdAt,value
2018-03-02T00:00:38.457Z,89.25
2018-03-02T00:01:27.519Z,81.63
2018-03-02T00:02:16.563Z,60.95
2018-03-02T00:03:05.610Z,67.85
2018-03-02T00:03:54.654Z,72.43
2018-03-02T00:04:43.721Z,91.80
2018-03-02T00:05:32.785Z,93.55
2018-03-02T00:06:22.013Z,90.53
2018-03-02T00:07:11.062Z,89.62
2018-03-02T00:08:00.112Z,90.25
2018-03-02T00:08:49.213Z,108.90
2018-03-02T00:09:38.288Z,104.65
2018-03-02T00:10:27.407Z,111.93
2018-03-02T00:11:16.559Z,124.03
2018-03-02T00:12:05.662Z,113.32
2018-03-02T00:12:54.708Z,130.60
2018-03-02T00:13:43.771Z,204.77
2018-03-02T00:14:32.845Z,178.27
2018-03-02T00:15:21.911Z,155.25
2018-03-02T00:16:10.995Z,165.00
2018-03-02T00:17:00.096Z,177.55
2018-03-02T00:17:49.175Z,147.20
2018-03-02T00:18:38.411Z,134.77
2018-03-02T00:19:27.467Z,131.23
2018-03-02T00:20:16.548Z,130.60
2018-03-02T00:21:05.605Z,100.28
2018-03-02T00:21:54.658Z,126.80
2018-03-02T00:22:43.707Z,105.78
2018-03-02T00:23:32.778Z,124.70
2018-03-02T00:24:21.903Z,127.50
2018-03-02T00:25:10.959Z,141.68
2018-03-02T00:26:00.012Z,110.18
2018-03-02T00:26:49.446Z,127.50
2018-03-02T00:27:38.582Z,118.43
2018-03-02T00:28:27.625Z,88.78
2018-03-02T00:29:16.665Z,106.55
2018-03-02T00:30:05.761Z,106.10
2018-03-02T00:30:54.821Z,131.10
2018-03-02T00:31:43.892Z,99.65
2018-03-02T00:32:32.937Z,95.53
2018-03-02T00:33:21.998Z,100.72
2018-03-02T00:34:11.035Z,88.85
2018-03-02T00:35:00.107Z,94.85
2018-03-02T00:35:49.254Z,101.25
2018-03-02T00:36:38.303Z,94.03
2018-03-02T00:37:27.350Z,105.22
2018-03-02T00:38:16.398Z,89.55
2018-03-02T00:39:05.459Z,77.75
2018-03-02T00:39:54.511Z,83.72
2018-03-02T00:40:43.569Z,85.05
2018-03-02T00:41:32.677Z,88.07
2018-03-02T00:42:21.788Z,106.63
2018-03-02T00:43:10.871Z,111.82
2018-03-02T00:43:59.948Z,110.95
2018-03-02T00:44:48.998Z,104.93
2018-03-02T00:45:38.040Z,91.57
2018-03-02T00:46:27.097Z,106.22
2018-03-02T00:47:16.182Z,90.30
2018-03-02T00:48:05.234Z,84.65
2018-03-02T00:48:54.279Z,84.80
2018-03-02T00:49:43.327Z,92.75
2018-03-02T00:50:32.369Z,94.20
2018-03-02T00:51:21.469Z,102.20
2018-03-02T00:52:10.531Z,95.22
2018-03-02T00:52:59.685Z,91.15
2018-03-02T00:53:48.755Z,98.20
2018-03-02T00:54:37.816Z,92.00
2018-03-02T00:55:26.866Z,89.45
2018-03-02T00:56:15.909Z,79.32
2018-03-02T00:57:04.950Z,85.62
2018-03-02T00:57:54.012Z,80.80
2018-03-02T00:58:43.139Z,88.65
2018-03-02T00:59:32.213Z,138.20
2018-03-02T01:00:21.279Z,127.90
2018-03-02T01:01:10.361Z,125.75
2018-03-02T01:01:59.485Z,113.30
2018-03-02T01:02:48.653Z,92.75
2018-03-02T01:03:37.764Z,78.12
2018-03-02T01:04:26.861Z,87.40
2018-03-02T01:05:15.920Z,88.35
2018-03-02T01:06:04.971Z,92.75
2018-03-02T01:06:54.072Z,89.62
2018-03-02T01:07:43.174Z,95.10
2018-03-02T01:08:32.272Z,88.50
2018-03-02T01:09:21.328Z,85.68
2018-03-02T01:10:10.512Z,89.72
2018-03-02T01:10:59.581Z,91.63
2018-03-02T01:11:48.915Z,96.43
2018-03-02T01:12:37.965Z,88.60
2018-03-02T01:13:27.014Z,93.28
2018-03-02T01:14:16.103Z,88.43
2018-03-02T01:15:05.155Z,94.55
2018-03-02T01:15:54.311Z,106.10
2018-03-02T01:16:43.444Z,118.10
2018-03-02T01:17:32.503Z,100.93
2018-03-02T01:18:21.562Z,99.05
2018-03-02T01:19:10.606Z,99.05
2018-03-02T01:19:59.707Z,98.68
2018-03-02T01:20:48.804Z,108.28
2018-03-02T01:21:37.839Z,92.57
2018-03-02T01:22:26.895Z,103.07
2018-03-02T01:23:15.966Z,95.28
2018-03-02T01:24:05.096Z,94.18
2018-03-02T01:24:54.152Z,94.10
2018-03-02T01:25:43.256Z,90.95
2018-03-02T01:26:32.321Z,91.07
2018-03-02T01:27:21.383Z,93.45
2018-03-02T01:28:10.440Z,91.90
2018-03-02T01:28:59.484Z,95.50
2018-03-02T01:29:48.530Z,89.75
2018-03-02T01:30:37.569Z,94.80
2018-03-02T01:31:26.743Z,97.62
2018-03-02T01:32:15.800Z,84.97
2018-03-02T01:33:04.873Z,91.47
2018-03-02T01:33:53.937Z,85.57
2018-03-02T01:34:46.239Z,93.12
2018-03-02T01:35:35.274Z,90.82
2018-03-02T01:36:24.405Z,96.07
2018-03-02T01:37:13.487Z,102.68
2018-03-02T01:38:02.571Z,94.40
2018-03-02T01:38:51.616Z,90.65
2018-03-02T01:39:40.677Z,90.07
2018-03-02T01:40:29.716Z,91.15
2018-03-02T01:41:18.761Z,91.78
2018-03-02T01:42:07.873Z,80.68
2018-03-02T01:42:56.937Z,82.10
2018-03-02T01:43:45.985Z,84.37
2018-03-02T01:44:35.033Z,95.00
2018-03-02T01:45:24.081Z,83.30
2018-03-02T01:46:13.168Z,93.30
2018-03-02T01:47:02.204Z,87.68
2018-03-02T01:47:51.351Z,84.50
2018-03-02T01:48:40.390Z,93.80
2018-03-02T01:49:29.441Z,83.20
2018-03-02T01:50:18.495Z,87.37
2018-03-02T01:51:07.693Z,87.15
2018-03-02T01:51:56.774Z,92.22
2018-03-02T01:52:45.854Z,88.28
2018-03-02T01:53:34.956Z,94.45
2018-03-02T01:54:24.295Z,83.97
2018-03-02T01:55:13.358Z,99.85
2018-03-02T01:56:02.424Z,96.25
2018-03-02T01:56:51.505Z,105.65
2018-03-02T01:57:40.577Z,103.70
2018-03-02T01:58:29.634Z,97.15
2018-03-02T01:59:18.674Z,113.90
2018-03-02T02:00:07.902Z,91.47
2018-03-02T02:00:56.974Z,89.55
2018-03-02T02:01:46.056Z,88.43
2018-03-02T02:02:35.089Z,66.22
2018-03-02T02:03:24.234Z,67.47
2018-03-02T02:04:13.276Z,68.05
2018-03-02T02:05:02.353Z,74.15
2018-03-02T02:05:51.392Z,68.78
2018-03-02T02:06:40.451Z,66.22
2018-03-02T02:07:29.540Z,65.37
2018-03-02T02:08:18.618Z,72.43
2018-03-02T02:09:07.717Z,67.97
2018-03-02T02:09:56.791Z,75.80
2018-03-02T02:10:45.855Z,77.97
2018-03-02T02:11:34.941Z,75.90
2018-03-02T02:12:24.177Z,75.07
2018-03-02T02:13:13.225Z,73.40
2018-03-02T02:14:02.365Z,74.60
2018-03-02T02:14:51.411Z,69.18
2018-03-02T02:15:40.454Z,75.78
2018-03-02T02:16:29.518Z,71.57
2018-03-02T02:17:18.612Z,73.07
2018-03-02T02:18:07.702Z,66.18
2018-03-02T02:18:56.792Z,70.43
2018-03-02T02:19:48.908Z,74.95
2018-03-02T02:20:37.953Z,66.78
2018-03-02T02:21:27.011Z,68.28
2018-03-02T02:22:16.076Z,66.40
2018-03-02T02:23:05.139Z,67.25
2018-03-02T02:23:54.181Z,75.75
2018-03-02T02:24:43.247Z,75.75
2018-03-02T02:25:32.406Z,80.40
2018-03-02T02:26:21.450Z,88.25
2018-03-02T02:27:10.484Z,79.45
2018-03-02T02:27:59.550Z,76.87
2018-03-02T02:28:48.597Z,94.55
2018-03-02T02:29:37.691Z,93.80
2018-03-02T02:30:26.736Z,99.07
2018-03-02T02:31:15.839Z,98.37
2018-03-02T02:32:04.880Z,88.68
2018-03-02T02:32:53.923Z,89.37
2018-03-02T02:33:43.041Z,88.28
2018-03-02T02:34:32.094Z,104.03
2018-03-02T02:35:21.177Z,116.97
2018-03-02T02:36:10.226Z,89.82
2018-03-02T02:36:59.393Z,82.85
2018-03-02T02:37:48.504Z,84.28
2018-03-02T02:38:37.551Z,85.87
2018-03-02T02:39:26.601Z,89.32
2018-03-02T02:40:15.683Z,87.25
2018-03-02T02:41:04.747Z,90.93
2018-03-02T02:41:53.807Z,95.30
2018-03-02T02:42:42.950Z,90.05
2018-03-02T02:43:32.018Z,88.85
2018-03-02T02:44:21.080Z,92.78
2018-03-02T02:45:10.131Z,93.50
2018-03-02T02:45:59.173Z,86.57
2018-03-02T02:46:48.253Z,95.72
2018-03-02T02:47:37.303Z,89.45
2018-03-02T02:48:26.376Z,88.65
2018-03-02T02:49:15.429Z,85.15
2018-03-02T02:50:04.468Z,84.40
2018-03-02T02:50:53.517Z,76.80
2018-03-02T02:51:42.574Z,77.10
2018-03-02T02:52:31.626Z,82.28
2018-03-02T02:53:20.668Z,82.00
2018-03-02T02:54:09.772Z,80.15
2018-03-02T02:54:58.827Z,78.10
2018-03-02T02:55:47.869Z,80.68
2018-03-02T02:56:36.920Z,75.87
2018-03-02T02:57:25.953Z,88.45
2018-03-02T02:58:15.110Z,86.68
2018-03-02T02:59:04.419Z,82.32
2018-03-02T02:59:53.476Z,80.60
2018-03-02T03:00:42.530Z,85.43
2018-03-02T03:01:31.588Z,87.80
2018-03-02T03:02:20.633Z,86.78
2018-03-02T03:03:09.714Z,87.80
2018-03-02T03:03:58.932Z,89.45
2018-03-02T03:04:47.991Z,111.82
2018-03-02T03:05:37.029Z,104.22
2018-03-02T03:06:26.092Z,128.05
2018-03-02T03:07:15.153Z,126.68
2018-03-02T03:08:04.203Z,122.28
2018-03-02T03:08:53.270Z,113.22
2018-03-02T03:09:42.405Z,121.00
2018-03-02T03:10:31.452Z,118.95
2018-03-02T03:11:20.541Z,127.75
2018-03-02T03:12:09.633Z,115.78
2018-03-02T03:12:58.709Z,121.43
2018-03-02T03:13:47.828Z,116.45
2018-03-02T03:14:36.872Z,102.87
2018-03-02T03:15:25.988Z,112.85
2018-03-02T03:16:15.032Z,118.00
2018-03-02T03:17:04.098Z,110.18
2018-03-02T03:17:53.154Z,105.53
2018-03-02T03:18:42.197Z,103.97
2018-03-02T03:19:31.249Z,102.75
2018-03-02T03:20:20.302Z,112.75
2018-03-02T03:21:09.516Z,104.20
2018-03-02T03:21:58.573Z,111.22
2018-03-02T03:22:47.624Z,122.60
2018-03-02T03:23:36.663Z,110.95
2018-03-02T03:24:25.726Z,91.82
2018-03-02T03:25:14.875Z,87.88
2018-03-02T03:26:03.916Z,83.65
2018-03-02T03:26:52.947Z,98.87
2018-03-02T03:27:41.991Z,93.65
2018-03-02T03:28:31.058Z,88.20
2018-03-02T03:29:20.141Z,79.03
2018-03-02T03:30:09.248Z,81.20
2018-03-02T03:30:58.365Z,84.80
2018-03-02T03:31:47.426Z,84.97
2018-03-02T03:32:36.480Z,86.18
2018-03-02T03:33:25.530Z,88.93
2018-03-02T03:34:14.631Z,70.30
2018-03-02T03:35:03.670Z,72.12
2018-03-02T03:35:52.732Z,73.25
2018-03-02T03:36:41.824Z,68.43
2018-03-02T03:37:30.868Z,75.72
2018-03-02T03:38:19.910Z,68.45
2018-03-02T03:39:08.952Z,73.90
2018-03-02T03:39:58.019Z,73.72
2018-03-02T03:40:47.066Z,74.60
2018-03-02T03:41:36.142Z,81.95
2018-03-02T03:42:25.306Z,83.28
2018-03-02T03:43:14.489Z,102.07
2018-03-02T03:44:03.558Z,95.18
2018-03-02T03:44:52.608Z,88.57
2018-03-02T03:45:41.655Z,83.37
2018-03-02T03:46:30.689Z,83.82
2018-03-02T03:47:19.730Z,81.70
2018-03-02T03:48:08.790Z,84.07
2018-03-02T03:48:57.885Z,83.80
2018-03-02T03:49:46.954Z,87.75
2018-03-02T03:50:36.013Z,95.15
2018-03-02T03:51:25.075Z,91.53
2018-03-02T03:52:14.277Z,91.22
2018-03-02T03:53:03.313Z,88.70
2018-03-02T03:53:52.356Z,85.87
2018-03-02T03:54:41.450Z,81.97
2018-03-02T03:55:30.505Z,87.12
2018-03-02T03:56:19.558Z,80.60
2018-03-02T03:57:08.610Z,79.78
2018-03-02T03:57:57.654Z,88.00
2018-03-02T03:58:46.714Z,113.00
2018-03-02T03:59:35.761Z,81.50
2018-03-02T04:00:24.901Z,79.30
2018-03-02T04:01:13.970Z,67.65
2018-03-02T04:02:03.081Z,70.47
2018-03-02T04:02:52.122Z,72.82
2018-03-02T04:03:41.167Z,75.50
2018-03-02T04:04:30.207Z,67.68
2018-03-02T04:05:19.452Z,70.43
2018-03-02T04:06:08.511Z,74.12
2018-03-02T04:06:57.545Z,75.55
2018-03-02T04:07:46.617Z,70.25
2018-03-02T04:08:35.663Z,74.82
2018-03-02T04:09:24.706Z,80.20
2018-03-02T04:10:13.747Z,80.38
2018-03-02T04:11:03.043Z,72.22
2018-03-02T04:11:52.098Z,76.22
2018-03-02T04:12:41.193Z,78.72
2018-03-02T04:13:30.274Z,77.47
2018-03-02T04:14:19.345Z,81.18
2018-03-02T04:15:08.456Z,84.62
2018-03-02T04:15:57.546Z,77.50
2018-03-02T04:16:46.594Z,90.43
2018-03-02T04:17:35.638Z,89.65
2018-03-02T04:18:24.684Z,240.55
2018-03-02T04:19:13.742Z,124.60
2018-03-02T04:20:02.787Z,108.25
2018-03-02T04:20:51.973Z,102.55
2018-03-02T04:21:41.055Z,92.45
2018-03-02T04:22:30.124Z,71.35
2018-03-02T04:23:19.259Z,79.28
2018-03-02T04:24:08.286Z,84.57
2018-03-02T04:24:57.429Z,79.50
2018-03-02T04:25:46.502Z,85.82
2018-03-02T04:26:35.596Z,80.50
2018-03-02T04:27:24.644Z,88.50
2018-03-02T04:28:13.684Z,76.80
2018-03-02T04:29:02.742Z,86.15
2018-03-02T04:29:51.777Z,89.87
2018-03-02T04:30:40.977Z,85.47
2018-03-02T04:31:30.055Z,95.57
2018-03-02T04:32:19.089Z,77.85
2018-03-02T04:33:08.146Z,80.87
2018-03-02T04:33:57.185Z,79.00
2018-03-02T04:34:46.231Z,76.78
2018-03-02T04:35:35.299Z,74.85
2018-03-02T04:36:24.383Z,77.12
2018-03-02T04:37:13.470Z,69.82
2018-03-02T04:38:02.554Z,88.45
2018-03-02T04:38:51.603Z,130.77
2018-03-02T04:39:40.657Z,122.00
2018-03-02T04:40:29.714Z,223.23
2018-03-02T04:41:18.761Z,261.33
2018-03-02T04:42:08.143Z,123.95
2018-03-02T04:42:57.222Z,191.27
2018-03-02T04:43:46.296Z,183.05
2018-03-02T04:44:35.357Z,77.82
2018-03-02T04:45:24.403Z,78.68
2018-03-02T04:46:13.470Z,111.45
2018-03-02T04:47:02.564Z,99.70
2018-03-02T04:47:51.725Z,83.57
2018-03-02T04:48:40.769Z,76.40
2018-03-02T04:49:29.822Z,69.05
2018-03-02T04:50:18.868Z,82.25
2018-03-02T04:51:07.920Z,76.35
2018-03-02T04:51:56.958Z,65.87
2018-03-02T04:52:46.021Z,73.15
2018-03-02T04:53:35.117Z,86.28
2018-03-02T04:54:24.183Z,78.45
2018-03-02T04:55:13.272Z,87.47
2018-03-02T04:56:02.337Z,99.70
2018-03-02T04:56:51.377Z,84.22
2018-03-02T04:57:40.464Z,79.12
2018-03-02T04:58:29.531Z,92.95
2018-03-02T04:59:18.675Z,98.05
2018-03-02T05:00:07.725Z,164.85
2018-03-02T05:00:56.807Z,111.15
2018-03-02T05:01:45.853Z,185.12
2018-03-02T05:02:34.899Z,179.35
2018-03-02T05:03:23.954Z,171.68
2018-03-02T05:04:13.039Z,167.43
2018-03-02T05:05:02.138Z,207.40
2018-03-02T05:05:51.206Z,158.80
2018-03-02T05:06:40.283Z,183.90
2018-03-02T05:07:29.352Z,179.05
2018-03-02T05:08:18.484Z,159.50
2018-03-02T05:09:07.555Z,145.65
2018-03-02T05:09:56.603Z,162.82
2018-03-02T05:10:45.709Z,142.93
2018-03-02T05:11:34.766Z,153.82
2018-03-02T05:12:23.842Z,148.38
2018-03-02T05:13:12.897Z,144.80
2018-03-02T05:14:01.991Z,129.32
2018-03-02T05:14:51.297Z,124.25
2018-03-02T05:15:40.349Z,123.40
2018-03-02T05:16:29.510Z,122.95
2018-03-02T05:17:18.558Z,109.60
2018-03-02T05:18:07.642Z,111.70
2018-03-02T05:18:56.690Z,117.43
2018-03-02T05:19:45.756Z,109.93
2018-03-02T05:20:34.806Z,107.37
2018-03-02T05:21:23.882Z,106.10
2018-03-02T05:22:12.970Z,94.45
2018-03-02T05:23:02.023Z,116.97
2018-03-02T05:23:51.104Z,109.93
2018-03-02T05:24:40.156Z,115.22
2018-03-02T05:25:29.240Z,105.03
2018-03-02T05:26:18.325Z,123.05
2018-03-02T05:27:07.388Z,80.80
2018-03-02T05:27:56.608Z,86.32
2018-03-02T05:28:45.672Z,119.37
2018-03-02T05:29:34.748Z,124.93
2018-03-02T05:30:23.900Z,155.55
2018-03-02T05:31:13.030Z,114.57
2018-03-02T05:32:02.097Z,156.73
2018-03-02T05:32:51.157Z,140.90
2018-03-02T05:33:40.233Z,151.20
2018-03-02T05:34:29.402Z,378.00
2018-03-02T05:35:18.458Z,172.23
2018-03-02T05:36:07.526Z,161.20
2018-03-02T05:36:56.581Z,163.23
2018-03-02T05:37:45.630Z,134.70
2018-03-02T05:38:34.685Z,125.30
2018-03-02T05:39:23.763Z,117.82
2018-03-02T05:40:12.851Z,132.50
2018-03-02T05:41:01.913Z,211.60
2018-03-02T05:41:50.966Z,166.82
2018-03-02T05:42:40.044Z,124.07
2018-03-02T05:43:31.479Z,128.15
2018-03-02T05:44:20.520Z,89.95
2018-03-02T05:45:10.378Z,92.85
2018-03-02T05:45:59.634Z,108.80
2018-03-02T05:46:48.672Z,117.62
2018-03-02T05:47:37.741Z,103.28
2018-03-02T05:48:26.816Z,106.00
2018-03-02T05:49:15.885Z,170.75
2018-03-02T05:50:04.943Z,135.88
2018-03-02T05:50:53.989Z,144.70
2018-03-02T05:51:43.185Z,110.60
2018-03-02T05:52:32.741Z,110.53
2018-03-02T05:53:21.851Z,123.68
2018-03-02T05:54:10.940Z,96.15
2018-03-02T05:54:59.995Z,95.78
2018-03-02T05:55:49.049Z,103.25
2018-03-02T05:56:38.097Z,91.22
2018-03-02T05:57:27.219Z,142.87
2018-03-02T05:58:16.321Z,154.25
2018-03-02T05:59:05.383Z,115.12
2018-03-02T05:59:54.491Z,116.18
2018-03-02T06:00:43.634Z,126.40
2018-03-02T06:01:32.693Z,149.07
2018-03-02T06:02:21.909Z,161.40
2018-03-02T06:03:10.976Z,146.40
2018-03-02T06:04:00.053Z,135.55
2018-03-02T06:04:49.195Z,170.38
2018-03-02T06:05:38.268Z,152.75
2018-03-02T06:06:27.343Z,133.60
2018-03-02T06:07:16.398Z,148.70
2018-03-02T06:08:05.457Z,166.48
2018-03-02T06:08:54.545Z,166.40
2018-03-02T06:09:43.630Z,152.98
2018-03-02T06:10:32.781Z,189.50
2018-03-02T06:11:21.843Z,205.75
2018-03-02T06:12:10.916Z,173.52
2018-03-02T06:12:59.968Z,162.30
2018-03-02T06:13:49.019Z,145.45
2018-03-02T06:14:38.114Z,127.82
2018-03-02T06:15:27.166Z,109.57
2018-03-02T06:16:16.281Z,104.78
2018-03-02T06:17:05.335Z,81.18
2018-03-02T06:17:54.382Z,92.18
2018-03-02T06:18:43.431Z,88.10
2018-03-02T06:19:32.486Z,139.02
2018-03-02T06:20:21.570Z,129.32
2018-03-02T06:21:10.618Z,118.75
2018-03-02T06:21:59.739Z,122.85
2018-03-02T06:22:48.787Z,113.68
2018-03-02T06:23:37.825Z,107.57
2018-03-02T06:24:26.873Z,133.85
2018-03-02T06:25:15.916Z,131.12
2018-03-02T06:26:04.968Z,127.22
2018-03-02T06:26:54.029Z,136.30
2018-03-02T06:27:43.200Z,191.30
2018-03-02T06:28:32.270Z,159.50
2018-03-02T06:29:21.335Z,177.65
2018-03-02T06:30:10.496Z,165.82
2018-03-02T06:30:59.596Z,226.12
2018-03-02T06:31:48.655Z,203.93
2018-03-02T06:32:37.714Z,266.33
2018-03-02T06:33:26.818Z,231.93
2018-03-02T06:34:15.886Z,227.77
2018-03-02T06:35:04.945Z,224.65
2018-03-02T06:35:54.006Z,217.87
2018-03-02T06:36:43.079Z,216.77
2018-03-02T06:37:32.164Z,231.60
2018-03-02T06:38:21.258Z,182.15
2018-03-02T06:39:10.370Z,167.70
2018-03-02T06:39:59.464Z,166.52
2018-03-02T06:40:48.520Z,174.20
2018-03-02T06:41:37.583Z,159.45
2018-03-02T06:42:26.641Z,156.18
2018-03-02T06:43:15.796Z,151.82
2018-03-02T06:44:04.842Z,137.77
2018-03-02T06:44:54.093Z,143.18
2018-03-02T06:45:43.151Z,127.97
2018-03-02T06:46:32.548Z,135.93
2018-03-02T06:47:21.652Z,148.95
2018-03-02T06:48:10.722Z,141.18
2018-03-02T06:48:59.802Z,89.62
2018-03-02T06:49:48.935Z,94.50
2018-03-02T06:50:38.022Z,111.37
2018-03-02T06:51:27.255Z,157.60
2018-03-02T06:52:16.522Z,121.07
2018-03-02T06:53:05.573Z,117.10
2018-03-02T06:53:54.634Z,168.95
2018-03-02T06:54:43.732Z,130.18
2018-03-02T06:55:32.873Z,140.95
2018-03-02T06:56:22.382Z,140.90
2018-03-02T06:57:11.448Z,137.95
2018-03-02T06:58:00.499Z,140.27
2018-03-02T06:58:49.606Z,206.90
2018-03-02T06:59:38.723Z,186.32
2018-03-02T07:00:27.790Z,175.87
2018-03-02T07:01:17.240Z,172.73
2018-03-02T07:02:06.516Z,156.30
2018-03-02T07:02:55.627Z,162.20
2018-03-02T07:03:44.706Z,188.50
2018-03-02T07:04:33.774Z,161.20
2018-03-02T07:05:22.840Z,132.37
2018-03-02T07:06:12.019Z,147.40
2018-03-02T07:07:01.076Z,150.20
2018-03-02T07:07:50.153Z,149.80
2018-03-02T07:08:39.195Z,153.65
2018-03-02T07:09:28.284Z,149.30
2018-03-02T07:10:17.341Z,149.30
2018-03-02T07:11:06.433Z,147.73
2018-03-02T07:11:55.520Z,168.98
2018-03-02T07:12:44.637Z,178.20
2018-03-02T07:13:33.686Z,155.75
2018-03-02T07:14:22.762Z,148.62
2018-03-02T07:15:11.819Z,142.05
2018-03-02T07:16:00.913Z,142.00
2018-03-02T07:16:50.001Z,266.58
2018-03-02T07:17:39.125Z,225.20
2018-03-02T07:18:28.200Z,186.43
2018-03-02T07:19:17.275Z,296.40
2018-03-02T07:20:06.368Z,324.80
2018-03-02T07:20:55.420Z,287.50
2018-03-02T07:21:44.640Z,184.68
2018-03-02T07:22:33.732Z,231.87
2018-03-02T07:23:22.807Z,222.88
2018-03-02T07:24:11.877Z,239.80
2018-03-02T07:25:00.941Z,232.75
2018-03-02T07:25:50.003Z,229.52
2018-03-02T07:26:39.068Z,247.27
2018-03-02T07:27:28.233Z,233.48
2018-03-02T07:28:17.299Z,228.32
2018-03-02T07:29:06.356Z,243.07
2018-03-02T07:29:55.433Z,225.32
2018-03-02T07:30:44.483Z,221.50
2018-03-02T07:31:33.530Z,231.05
2018-03-02T07:32:22.623Z,241.95
2018-03-02T07:33:11.732Z,242.95
2018-03-02T07:34:01.707Z,241.27
2018-03-02T07:34:50.830Z,237.10
2018-03-02T07:35:39.881Z,222.77
2018-03-02T07:36:28.931Z,217.93
2018-03-02T07:37:17.982Z,222.52
2018-03-02T07:38:07.050Z,237.20
2018-03-02T07:38:56.230Z,232.02
2018-03-02T07:39:45.281Z,304.20
2018-03-02T07:40:34.362Z,272.75
2018-03-02T07:41:23.410Z,243.57
2018-03-02T07:42:12.491Z,247.37
2018-03-02T07:43:01.552Z,312.92
2018-03-02T07:43:50.633Z,265.70
2018-03-02T07:44:39.882Z,262.17
2018-03-02T07:45:28.953Z,240.45
2018-03-02T07:46:18.061Z,275.02
2018-03-02T07:47:07.129Z,274.37
2018-03-02T07:47:56.224Z,254.75
2018-03-02T07:48:45.283Z,228.55
2018-03-02T07:49:34.375Z,238.75
2018-03-02T07:50:23.503Z,232.40
2018-03-02T07:51:12.597Z,232.95
2018-03-02T07:52:01.722Z,237.68
2018-03-02T07:52:50.886Z,248.65
2018-03-02T07:53:39.950Z,258.52
2018-03-02T07:54:29.010Z,246.45
2018-03-02T07:55:18.097Z,259.67
2018-03-02T07:56:07.147Z,243.80
2018-03-02T07:56:56.237Z,256.17
2018-03-02T07:57:45.325Z,262.92
2018-03-02T07:58:34.487Z,294.52
2018-03-02T07:59:23.559Z,277.02
2018-03-02T08:00:12.790Z,276.77
2018-03-02T08:01:01.887Z,298.30
2018-03-02T08:01:50.949Z,308.63
2018-03-02T08:02:40.018Z,279.90
2018-03-02T08:03:29.127Z,260.77
2018-03-02T08:04:18.399Z,314.50
2018-03-02T08:05:07.467Z,324.37
2018-03-02T08:05:57.310Z,237.15
2018-03-02T08:06:46.374Z,255.32
2018-03-02T08:07:35.433Z,255.23
2018-03-02T08:08:24.541Z,224.48
2018-03-02T08:09:13.645Z,202.57
2018-03-02T08:10:02.695Z,155.95
2018-03-02T08:10:51.760Z,179.43
2018-03-02T08:11:40.844Z,163.73
2018-03-02T08:12:29.929Z,157.05
2018-03-02T08:13:18.982Z,130.40
2018-03-02T08:14:08.140Z,171.82
2018-03-02T08:14:57.193Z,238.25
2018-03-02T08:15:46.273Z,283.62
2018-03-02T08:16:35.343Z,313.30
2018-03-02T08:17:24.401Z,281.67
2018-03-02T08:18:13.437Z,260.77
2018-03-02T08:19:02.515Z,205.25
2018-03-02T08:19:51.724Z,191.80
2018-03-02T08:20:40.808Z,177.50
2018-03-02T08:21:29.857Z,144.45
2018-03-02T08:22:18.903Z,233.85
2018-03-02T08:23:07.992Z,160.98
2018-03-02T08:23:57.040Z,124.57
2018-03-02T08:24:46.097Z,166.98
2018-03-02T08:25:35.152Z,170.27
2018-03-02T08:26:24.229Z,233.00
2018-03-02T08:27:13.278Z,188.15
2018-03-02T08:28:02.325Z,199.30
2018-03-02T08:28:51.451Z,167.25
2018-03-02T08:29:40.496Z,172.90
2018-03-02T08:30:29.560Z,189.27
2018-03-02T08:31:18.631Z,195.98
2018-03-02T08:32:07.684Z,162.73
2018-03-02T08:32:56.759Z,207.37
2018-03-02T08:33:45.821Z,208.98
2018-03-02T08:34:35.001Z,215.37
2018-03-02T08:35:24.080Z,177.98
2018-03-02T08:36:13.145Z,142.68
2018-03-02T08:37:02.233Z,149.65
2018-03-02T08:37:51.284Z,134.07
2018-03-02T08:38:40.356Z,122.90
2018-03-02T08:39:29.403Z,135.18
2018-03-02T08:40:18.563Z,145.80
2018-03-02T08:41:07.614Z,188.48
2018-03-02T08:41:56.693Z,158.85
2018-03-02T08:42:45.786Z,209.93
2018-03-02T08:43:34.837Z,200.35
2018-03-02T08:44:24.036Z,159.25
2018-03-02T08:45:13.102Z,191.95
2018-03-02T08:46:02.210Z,122.90
2018-03-02T08:46:51.276Z,96.53
2018-03-02T08:47:40.317Z,132.95
2018-03-02T08:48:29.385Z,218.60
2018-03-02T08:49:18.438Z,192.00
2018-03-02T08:50:07.520Z,239.82
2018-03-02T08:50:56.573Z,200.35
2018-03-02T08:51:45.873Z,139.40
2018-03-02T08:52:34.932Z,164.73
2018-03-02T08:53:23.994Z,159.37
2018-03-02T08:54:13.154Z,150.12
2018-03-02T08:55:02.208Z,149.10
2018-03-02T08:55:51.283Z,168.18
2018-03-02T08:56:40.343Z,268.80
2018-03-02T08:57:29.434Z,165.57
2018-03-02T08:58:18.522Z,335.48
2018-03-02T08:59:07.569Z,206.93
2018-03-02T08:59:56.685Z,184.13
2018-03-02T09:00:45.740Z,192.40
2018-03-02T09:01:34.778Z,174.12
2018-03-02T09:02:23.852Z,127.40
2018-03-02T09:03:12.891Z,131.90
2018-03-02T09:04:01.933Z,141.52
2018-03-02T09:04:51.010Z,161.57
2018-03-02T09:05:40.075Z,148.82
2018-03-02T09:06:29.123Z,157.32
2018-03-02T09:07:18.170Z,155.77
2018-03-02T09:08:07.220Z,182.50
2018-03-02T09:08:56.265Z,181.75
2018-03-02T09:09:45.330Z,184.20
2018-03-02T09:10:35.339Z,170.40
2018-03-02T09:11:24.413Z,182.10
2018-03-02T09:12:13.461Z,223.02
2018-03-02T09:13:02.532Z,208.35
2018-03-02T09:13:51.599Z,159.93
2018-03-02T09:14:40.660Z,168.40
2018-03-02T09:15:29.703Z,194.10
2018-03-02T09:16:21.892Z,183.87
2018-03-02T09:17:10.945Z,194.35
2018-03-02T09:17:59.994Z,257.62
2018-03-02T09:18:49.037Z,223.32
2018-03-02T09:19:38.083Z,235.57
2018-03-02T09:20:27.145Z,206.90
2018-03-02T09:21:16.205Z,189.82
2018-03-02T09:22:05.308Z,223.55
2018-03-02T09:22:54.410Z,158.85
2018-03-02T09:23:43.463Z,168.45
2018-03-02T09:24:32.513Z,153.73
2018-03-02T09:25:21.573Z,176.68
2018-03-02T09:26:10.627Z,136.30
2018-03-02T09:26:59.674Z,117.15
2018-03-02T09:27:48.806Z,140.12
2018-03-02T09:28:37.875Z,139.30
2018-03-02T09:29:26.915Z,138.07
2018-03-02T09:30:15.991Z,137.10
2018-03-02T09:31:05.031Z,126.65
2018-03-02T09:31:54.074Z,144.62
2018-03-02T09:32:43.118Z,170.60
2018-03-02T09:33:32.330Z,138.60
2018-03-02T09:34:21.379Z,142.52
2018-03-02T09:35:10.445Z,130.20
2018-03-02T09:35:59.505Z,135.43
2018-03-02T09:36:48.553Z,133.37
2018-03-02T09:37:37.595Z,148.40
2018-03-02T09:38:26.643Z,135.27
2018-03-02T09:39:15.804Z,156.48
2018-03-02T09:40:04.875Z,197.32
2018-03-02T09:40:53.977Z,282.27
2018-03-02T09:41:43.042Z,130.05
2018-03-02T09:42:32.204Z,146.32
2018-03-02T09:43:21.251Z,100.47
2018-03-02T09:44:10.370Z,138.10
2018-03-02T09:44:59.430Z,92.78
2018-03-02T09:45:48.493Z,123.38
2018-03-02T09:46:37.544Z,100.25
2018-03-02T09:47:26.581Z,75.87
2018-03-02T09:48:15.711Z,71.65
2018-03-02T09:49:04.720Z,81.47
2018-03-02T09:49:53.789Z,100.38
2018-03-02T09:50:42.836Z,77.18
2018-03-02T09:51:31.902Z,68.65
2018-03-02T09:52:20.971Z,76.15
2018-03-02T09:53:10.006Z,95.93
2018-03-02T09:53:59.172Z,75.30
2018-03-02T09:54:48.222Z,102.53
2018-03-02T09:55:37.262Z,100.30
2018-03-02T09:56:26.342Z,129.25
2018-03-02T09:57:15.401Z,108.35
2018-03-02T09:58:04.438Z,106.15
2018-03-02T09:58:53.499Z,106.05
2018-03-02T09:59:42.603Z,116.68
2018-03-02T10:00:31.686Z,103.43
2018-03-02T10:01:20.762Z,114.50
2018-03-02T10:02:09.820Z,83.12
2018-03-02T10:02:58.877Z,96.30
2018-03-02T10:03:47.932Z,92.75
2018-03-02T10:04:36.974Z,109.78
2018-03-02T10:05:26.176Z,91.65
2018-03-02T10:06:15.213Z,101.12
2018-03-02T10:07:04.258Z,128.38
2018-03-02T10:07:53.308Z,119.68
2018-03-02T10:08:42.355Z,114.68
2018-03-02T10:09:31.528Z,114.85
2018-03-02T10:10:20.702Z,114.93
2018-03-02T10:11:09.753Z,102.50
2018-03-02T10:11:58.808Z,103.75
2018-03-02T10:12:47.858Z,104.07
2018-03-02T10:13:36.895Z,118.68
2018-03-02T10:14:25.965Z,116.28
2018-03-02T10:15:15.018Z,151.93
2018-03-02T10:16:04.148Z,120.25
2018-03-02T10:16:53.201Z,127.75
2018-03-02T10:17:42.255Z,138.62
2018-03-02T10:18:31.323Z,140.57
2018-03-02T10:19:20.374Z,137.90
2018-03-02T10:20:09.433Z,147.15
2018-03-02T10:20:58.498Z,165.25